createdAt,value
2022-12-17T08:31:33.508Z,36.70
2022-12-17T08:34:16.747Z,33.33
2022-12-17T08:37:01.054Z,30.05
2022-12-17T08:39:48.762Z,34.92
2022-12-17T08:42:38.189Z,35.63
2022-12-17T08:45:24.033Z,31.08
2022-12-17T08:48:17.958Z,30.65
2022-12-17T08:51:02.042Z,32.67
2022-12-17T08:53:45.212Z,34.85
2022-12-17T08:56:30.812Z,33.70
2022-12-17T08:59:15.350Z,28.10
2022-12-17T09:01:58.675Z,29.67
2022-12-17T09:04:44.510Z,27.65
2022-12-17T09:07:27.749Z,28.80
2022-12-17T09:10:13.849Z,33.97
2022-12-17T09:13:04.213Z,31.95
2022-12-17T09:15:48.513Z,28.08
2022-12-17T09:18:37.125Z,29.20
2022-12-17T09:21:23.988Z,26.98
2022-12-17T09:24:07.570Z,37.25
2022-12-17T09:26:59.382Z,31.23
2022-12-17T09:29:50.663Z,30.63
2022-12-17T09:32:34.348Z,26.73
2022-12-17T09:35:21.800Z,31.90
2022-12-17T09:38:10.251Z,29.75
2022-12-17T09:40:54.701Z,30.05
2022-12-17T09:43:49.536Z,28.30
2022-12-17T09:52:35.703Z,28.58
2022-12-17T09:55:36.054Z,29.27
2022-12-17T09:58:19.982Z,29.38
2022-12-17T10:01:05.015Z,30.60
2022-12-17T10:03:50.675Z,29.80
2022-12-17T10:06:42.127Z,33.80
2022-12-17T10:09:31.187Z,29.92
2022-12-17T10:12:27.991Z,30.58
2022-12-17T10:15:11.699Z,29.70
2022-12-17T10:17:55.370Z,32.67
2022-12-17T10:20:45.418Z,29.30
2022-12-17T10:23:39.166Z,32.83
2022-12-17T10:26:22.630Z,31.50
2022-12-17T10:29:17.497Z,29.88
2022-12-17T10:32:12.831Z,34.15
2022-12-17T10:35:05.215Z,28.52
2022-12-17T10:37:53.519Z,30.85
2022-12-17T10:40:41.666Z,33.15
2022-12-17T10:43:44.517Z,32.70
2022-12-17T10:46:52.505Z,31.85
2022-12-17T10:49:38.215Z,28.75
2022-12-17T10:52:34.501Z,32.15
2022-12-17T10:55:20.751Z,29.33
2022-12-17T10:58:06.469Z,28.20
2022-12-17T11:00:52.348Z,34.67
2022-12-17T11:04:03.908Z,34.70
2022-12-17T11:06:50.855Z,33.78
2022-12-17T11:09:44.591Z,32.20
2022-12-17T11:12:31.096Z,27.92
2022-12-17T11:15:19.444Z,30.23
2022-12-17T11:18:10.913Z,30.98
2022-12-17T11:21:10.281Z,28.40
2022-12-17T11:23:59.895Z,27.88
2022-12-17T11:26:47.715Z,31.98
2022-12-17T11:29:30.920Z,28.23
2022-12-17T11:32:32.951Z,31.35
2022-12-17T11:35:22.857Z,27.48
2022-12-17T11:39:22.458Z,29.33
2022-12-17T11:41:45.947Z,24.33
2022-12-17T11:44:39.252Z,28.92
2022-12-17T11:47:32.887Z,28.40
2022-12-17T11:50:26.944Z,26.45
2022-12-17T11:53:28.349Z,28.50
2022-12-17T11:56:16.833Z,29.00
2022-12-17T11:59:07.038Z,27.38
2022-12-17T12:01:56.732Z,24.58
2022-12-17T12:05:01.180Z,26.17
2022-12-17T12:07:51.416Z,27.85
2022-12-17T12:10:46.118Z,27.50
2022-12-17T12:13:40.027Z,29.63
2022-12-17T12:16:31.477Z,26.40
2022-12-17T12:19:26.393Z,27.52
2022-12-17T12:22:15.519Z,29.13
2022-12-17T12:25:24.147Z,25.60
2022-12-17T12:28:19.828Z,25.58
2022-12-17T12:31:13.984Z,27.48
2022-12-17T12:34:05.504Z,28.65
2022-12-17T12:36:50.097Z,28.13
2022-12-17T12:39:44.492Z,29.00
2022-12-17T12:42:35.135Z,29.33
2022-12-17T12:45:31.527Z,28.05
2022-12-17T12:54:16.345Z,26.08
2022-12-17T12:57:03.074Z,29.25
2022-12-17T12:59:50.159Z,28.27
2022-12-17T13:02:44.973Z,28.30
2022-12-17T13:05:35.375Z,32.50
2022-12-17T13:08:23.264Z,29.95
2022-12-17T13:10:55.735Z,29.00
2022-12-17T13:13:35.789Z,25.65
2022-12-17T13:16:23.073Z,25.30
2022-12-17T13:19:04.673Z,25.45
2022-12-17T13:21:36.040Z,30.00
2022-12-17T13:24:15.094Z,24.73
2022-12-17T13:26:48.007Z,26.67
2022-12-17T13:29:27.369Z,25.92
2022-12-17T13:32:08.041Z,26.77
2022-12-17T13:34:58.622Z,29.08
2022-12-17T13:37:42.401Z,25.48
2022-12-17T13:40:27.464Z,26.73
2022-12-17T13:42:58.368Z,24.58
2022-12-17T13:45:30.251Z,23.67
2022-12-17T13:48:02.223Z,26.15
2022-12-17T13:50:36.670Z,22.95
2022-12-17T13:53:17.089Z,23.50
2022-12-17T13:55:53.240Z,24.13
2022-12-17T13:58:26.487Z,24.27
2022-12-17T14:01:08.144Z,26.67
2022-12-17T14:06:31.325Z,31.23
2022-12-17T14:09:02.315Z,27.65
2022-12-17T14:11:48.178Z,30.65
2022-12-17T14:14:29.722Z,30.20
2022-12-17T14:17:00.779Z,32.65
2022-12-17T14:19:34.476Z,26.88
2022-12-17T14:22:08.429Z,25.98
2022-12-17T14:24:39.207Z,25.15
2022-12-17T14:27:26.775Z,28.35
2022-12-17T14:30:00.415Z,29.85
2022-12-17T14:32:37.066Z,28.42
2022-12-17T14:35:08.706Z,30.50
2022-12-17T14:37:42.776Z,31.20
2022-12-17T14:40:17.983Z,27.42
2022-12-17T14:42:48.897Z,29.17
2022-12-17T14:45:31.650Z,26.83
2022-12-17T14:48:07.159Z,28.88
2022-12-17T14:50:39.814Z,30.20
2022-12-17T14:53:29.871Z,28.15
2022-12-17T14:56:02.235Z,28.75
2022-12-17T14:58:32.959Z,29.73
2022-12-17T15:01:10.788Z,27.73
2022-12-17T15:03:46.171Z,26.73
2022-12-17T15:06:21.731Z,22.23
2022-12-17T15:08:58.323Z,31.85
2022-12-17T15:11:29.145Z,33.55
2022-12-17T15:14:00.662Z,44.80
2022-12-17T15:16:31.606Z,51.38
2022-12-17T15:19:04.546Z,54.35
2022-12-17T15:24:52.542Z,54.55
2022-12-17T15:27:26.233Z,59.67
2022-12-17T15:29:57.285Z,53.28
2022-12-17T15:32:29.464Z,59.35
2022-12-17T15:35:00.499Z,52.75
2022-12-17T15:37:33.709Z,57.05
2022-12-17T15:40:04.704Z,53.33
2022-12-17T15:42:51.067Z,54.17
2022-12-17T15:45:22.069Z,49.83
2022-12-17T15:47:52.845Z,54.30
2022-12-17T15:50:26.825Z,48.50
2022-12-17T15:52:58.045Z,53.30
2022-12-17T15:55:29.987Z,59.15
2022-12-17T15:58:03.979Z,67.82
2022-12-17T16:00:35.150Z,52.63
2022-12-17T16:03:06.058Z,54.25
2022-12-17T16:05:36.964Z,59.33
2022-12-17T16:08:08.033Z,49.72
2022-12-17T16:10:39.555Z,55.10
2022-12-17T16:13:15.285Z,54.30
2022-12-17T16:15:47.564Z,55.65
2022-12-17T16:18:18.374Z,50.55
2022-12-17T16:20:50.391Z,58.97
2022-12-17T16:23:22.195Z,59.50
2022-12-17T16:26:00.537Z,57.28
2022-12-17T16:28:34.563Z,58.67
2022-12-17T16:31:08.577Z,51.80
2022-12-17T16:33:42.323Z,55.38
2022-12-17T16:36:16.349Z,56.50
2022-12-17T16:38:53.164Z,59.40
2022-12-17T16:41:26.193Z,55.78
2022-12-17T16:43:59.559Z,56.25
2022-12-17T16:46:32.216Z,57.80
2022-12-17T16:49:08.439Z,59.42
2022-12-17T16:51:40.978Z,56.40
2022-12-17T16:54:15.759Z,60.35
2022-12-17T16:56:50.414Z,59.33
2022-12-17T16:59:24.662Z,60.10
2022-12-17T17:05:16.478Z,54.60
2022-12-17T17:07:47.241Z,56.30
2022-12-17T17:10:18.066Z,64.20
2022-12-17T17:12:48.801Z,57.20
2022-12-17T17:15:22.745Z,67.20
2022-12-17T17:18:01.563Z,57.65
2022-12-17T17:20:35.320Z,75.00
2022-12-17T17:23:06.216Z,72.47
2022-12-17T17:25:57.253Z,71.93
2022-12-17T17:28:29.010Z,73.40
2022-12-17T17:31:04.941Z,76.47
2022-12-17T17:33:37.759Z,79.85
2022-12-17T17:36:11.861Z,85.55
2022-12-17T17:38:47.550Z,78.72
2022-12-17T17:41:20.610Z,74.82
2022-12-17T17:43:57.492Z,78.63
2022-12-17T17:46:35.348Z,79.35
2022-12-17T17:49:11.077Z,79.70
2022-12-17T17:54:34.894Z,73.15
2022-12-17T17:57:06.258Z,72.55
2022-12-17T17:59:39.776Z,77.78
2022-12-17T18:02:14.528Z,75.88
2022-12-17T18:04:45.663Z,81.13
2022-12-17T18:07:25.112Z,80.47
2022-12-17T18:09:56.662Z,81.05
2022-12-17T18:12:40.006Z,77.80
2022-12-17T18:30:55.468Z,75.88
2022-12-17T18:33:26.940Z,76.57
2022-12-17T18:35:57.751Z,75.85
2022-12-17T18:38:30.968Z,71.07
2022-12-17T18:41:28.719Z,77.05
2022-12-17T18:44:01.399Z,82.22
2022-12-17T18:46:35.666Z,73.53
2022-12-17T18:49:08.907Z,81.35
2022-12-17T18:51:43.020Z,83.13
2022-12-17T18:54:17.100Z,72.47
2022-12-17T18:57:03.737Z,77.18
2022-12-17T18:59:35.050Z,71.22
2022-12-17T19:02:09.102Z,73.10
2022-12-17T19:04:40.006Z,81.38
2022-12-17T19:07:10.808Z,71.10
2022-12-17T19:09:42.379Z,75.85
2022-12-17T19:12:13.507Z,76.55
2022-12-17T19:14:45.610Z,82.90
2022-12-17T19:17:22.701Z,86.05
2022-12-17T19:19:53.629Z,107.47
2022-12-17T19:22:24.480Z,92.53
2022-12-17T19:24:58.016Z,100.35
2022-12-17T19:27:29.443Z,97.75
2022-12-17T19:30:00.297Z,101.00
2022-12-17T19:32:36.781Z,95.85
2022-12-17T19:35:10.217Z,108.97
2022-12-17T19:37:40.926Z,88.80
2022-12-17T19:40:15.013Z,94.63
2022-12-17T19:42:46.468Z,87.78
2022-12-17T19:45:20.825Z,77.25
2022-12-17T19:47:56.757Z,82.32
2022-12-17T19:50:27.518Z,75.57
2022-12-17T19:52:58.286Z,79.15
2022-12-17T19:55:30.926Z,70.90
2022-12-17T19:58:01.665Z,75.78
2022-12-17T20:00:33.821Z,76.00
2022-12-17T20:03:12.599Z,67.22
2022-12-17T20:05:46.068Z,72.60
2022-12-17T20:08:22.185Z,66.72
2022-12-17T20:13:50.000Z,73.70
2022-12-17T20:16:27.647Z,65.80
2022-12-17T20:19:02.037Z,70.38
2022-12-17T20:21:33.267Z,77.55
2022-12-17T20:24:04.462Z,66.95
2022-12-17T20:26:37.221Z,71.13
2022-12-17T20:29:09.053Z,69.03
2022-12-17T20:31:42.311Z,75.03
2022-12-17T20:34:21.099Z,69.00
2022-12-17T20:36:53.175Z,68.28
2022-12-17T20:39:29.839Z,73.85
2022-12-17T20:42:00.675Z,78.57
2022-12-17T20:44:31.616Z,78.00
2022-12-17T20:47:04.070Z,91.05
2022-12-17T20:49:37.583Z,83.10
2022-12-17T20:52:09.420Z,79.75
2022-12-17T20:54:40.366Z,81.72
2022-12-17T22:20:16.217Z,69.50
2022-12-17T22:22:47.436Z,71.65
2022-12-17T22:25:19.180Z,66.10
2022-12-17T22:27:50.069Z,64.95
2022-12-17T22:38:02.434Z,64.28
2022-12-17T22:44:07.712Z,74.68
2022-12-17T22:44:28.950Z,64.50
2022-12-17T22:45:17.714Z,64.00
2022-12-17T22:47:49.848Z,65.45
2022-12-17T22:50:27.640Z,72.63
2022-12-17T22:53:04.543Z,68.07
2022-12-17T22:55:37.151Z,73.55
2022-12-17T22:58:10.495Z,67.82
2022-12-17T23:00:41.639Z,65.75
2022-12-17T23:03:12.656Z,73.85
2022-12-17T23:05:45.131Z,69.03
2022-12-17T23:08:18.431Z,63.60
2022-12-17T23:10:52.230Z,68.30
2022-12-17T23:13:23.003Z,70.00
2022-12-17T23:15:57.563Z,67.22
2022-12-17T23:18:28.305Z,65.40
2022-12-17T23:20:59.359Z,62.47
2022-12-17T23:23:32.719Z,67.93
2022-12-17T23:26:09.941Z,61.10
2022-12-17T23:28:40.674Z,70.30
2022-12-17T23:31:12.703Z,67.88
2022-12-17T23:33:44.142Z,65.72
2022-12-17T23:36:16.671Z,71.65
2022-12-17T23:38:52.502Z,70.28
2022-12-17T23:41:25.900Z,66.40
2022-12-17T23:43:57.586Z,70.75
2022-12-17T23:46:30.646Z,81.55
2022-12-17T23:49:01.407Z,86.53
2022-12-17T23:51:32.696Z,85.50
2022-12-17T23:54:08.406Z,86.18
2022-12-17T23:56:39.208Z,83.93
2022-12-17T23:59:10.110Z,85.72
